createdAt,value
2023-11-23T00:00:32.171Z,101555.22
2023-11-23T00:03:35.197Z,101547.19
2023-11-23T00:06:37.716Z,101548.38
2023-11-23T00:09:40.554Z,101560.41
2023-11-23T00:12:42.743Z,101566.50
2023-11-23T00:15:44.506Z,101560.59
2023-11-23T00:18:47.718Z,101547.81
2023-11-23T00:21:49.643Z,101538.59
2023-11-23T00:24:51.334Z,101538.16
2023-11-23T00:27:53.813Z,101548.34
2023-11-23T00:30:55.749Z,101548.34
2023-11-23T00:33:58.904Z,101551.19
2023-11-23T00:37:00.869Z,101548.59
2023-11-23T00:40:04.167Z,101532.84
2023-11-23T00:43:06.223Z,101531.94
2023-11-23T00:46:07.979Z,101513.59
2023-11-23T00:49:11.879Z,101516.66
2023-11-23T00:52:13.675Z,101509.84
2023-11-23T00:55:15.363Z,101501.63
2023-11-23T00:58:17.419Z,101509.66
2023-11-23T01:01:20.818Z,101512.97
2023-11-23T01:04:23.939Z,101497.66
2023-11-23T01:07:25.612Z,101513.66
2023-11-23T01:10:27.475Z,101510.38
2023-11-23T01:13:30.331Z,101499.84
2023-11-23T01:16:32.113Z,101508.06
2023-11-23T01:19:35.134Z,101506.41
2023-11-23T01:22:37.120Z,101497.25
2023-11-23T01:25:39.560Z,101501.53
2023-11-23T01:28:41.773Z,101495.66
2023-11-23T01:31:43.411Z,101499.84
2023-11-23T01:34:46.393Z,101480.81
2023-11-23T01:37:48.127Z,101483.84
2023-11-23T01:40:49.936Z,101482.53
2023-11-23T01:43:53.920Z,101480.63
2023-11-23T01:46:56.905Z,101475.88
2023-11-23T01:50:03.625Z,101487.13
2023-11-23T01:53:05.667Z,101488.34
2023-11-23T01:56:09.585Z,101490.25
2023-11-23T01:59:13.413Z,101503.66
2023-11-23T02:02:15.558Z,101503.84
2023-11-23T02:05:18.712Z,101508.09
2023-11-23T02:08:20.603Z,101499.84
2023-11-23T02:11:22.519Z,101493.31
2023-11-23T02:14:25.340Z,101495.91
2023-11-23T02:17:31.628Z,101478.47
2023-11-23T02:20:34.731Z,101473.53
2023-11-23T02:23:36.440Z,101465.53
2023-11-23T02:26:39.506Z,101461.72
2023-11-23T02:29:41.207Z,101459.59
2023-11-23T02:32:43.089Z,101455.56
2023-11-23T02:35:45.287Z,101457.44
2023-11-23T02:38:47.098Z,101470.91
2023-11-23T02:41:50.459Z,101468.31
2023-11-23T02:44:52.132Z,101481.00
2023-11-23T02:47:54.124Z,101476.81
2023-11-23T02:50:55.926Z,101467.88
2023-11-23T02:53:57.668Z,101459.16
2023-11-23T02:57:00.815Z,101457.50
2023-11-23T03:00:05.551Z,101452.63
2023-11-23T03:03:07.464Z,101458.31
2023-11-23T03:06:09.975Z,101453.78
2023-11-23T03:09:13.828Z,101458.72
2023-11-23T03:12:17.626Z,101446.03
2023-11-23T03:15:19.531Z,101446.75
2023-11-23T03:18:21.542Z,101435.66
2023-11-23T03:21:24.388Z,101434.03
2023-11-23T03:24:26.282Z,101430.50
2023-11-23T03:27:29.334Z,101434.25
2023-11-23T03:30:31.011Z,101425.81
2023-11-23T03:33:33.148Z,101427.69
2023-11-23T03:36:35.009Z,101429.31
2023-11-23T03:39:36.697Z,101422.25
2023-11-23T03:42:39.719Z,101430.03
2023-11-23T03:45:42.066Z,101432.59
2023-11-23T03:48:43.831Z,101435.84
2023-11-23T03:51:45.485Z,101435.59
2023-11-23T03:54:47.233Z,101434.19
2023-11-23T03:57:50.788Z,101443.88
2023-11-23T04:00:52.522Z,101443.16
2023-11-23T04:03:54.391Z,101439.41
2023-11-23T04:06:56.266Z,101430.97
2023-11-23T04:09:57.935Z,101429.28
2023-11-23T04:13:01.012Z,101421.75
2023-11-23T04:16:03.047Z,101417.56
2023-11-23T04:19:04.879Z,101404.63
2023-11-23T04:22:07.868Z,101412.31
2023-11-23T04:25:09.787Z,101406.63
2023-11-23T04:28:13.009Z,101403.56
2023-11-23T04:31:14.957Z,101399.53
2023-11-23T04:34:16.803Z,101396.94
2023-11-23T04:37:19.028Z,101401.84
2023-11-23T04:40:20.841Z,101396.41
2023-11-23T04:43:23.963Z,101401.06
2023-11-23T04:46:25.992Z,101397.28
2023-11-23T04:49:27.833Z,101389.25
2023-11-23T04:52:29.617Z,101387.09
2023-11-23T04:55:32.481Z,101381.22
2023-11-23T04:58:35.651Z,101370.53
2023-11-23T05:01:37.942Z,101375.22
2023-11-23T05:04:39.827Z,101386.03
2023-11-23T05:07:41.665Z,101378.25
2023-11-23T05:10:44.413Z,101383.38
2023-11-23T05:13:47.470Z,101385.91
2023-11-23T05:16:51.035Z,101382.63
2023-11-23T05:19:52.962Z,101373.91
2023-11-23T05:22:54.670Z,101378.63
2023-11-23T05:25:57.207Z,101372.72
2023-11-23T05:29:00.375Z,101382.56
2023-11-23T05:32:02.098Z,101383.25
2023-11-23T05:35:04.348Z,101383.25
2023-11-23T05:38:06.211Z,101382.69
2023-11-23T05:41:07.932Z,101379.41
2023-11-23T05:44:12.541Z,101387.66
2023-11-23T05:47:14.287Z,101390.25
2023-11-23T05:50:16.108Z,101382.28
2023-11-23T05:53:18.013Z,101389.31
2023-11-23T05:56:19.778Z,101395.88
2023-11-23T05:59:22.910Z,101386.91
2023-11-23T06:02:24.733Z,101393.94
2023-11-23T06:05:26.644Z,101408.13
2023-11-23T06:08:29.028Z,101394.69
2023-11-23T06:11:30.732Z,101394.19
2023-11-23T06:14:34.057Z,101388.94
2023-11-23T06:17:36.066Z,101387.63
2023-11-23T06:20:37.981Z,101380.13
2023-11-23T06:23:39.774Z,101384.53
2023-11-23T06:26:41.443Z,101390.69
2023-11-23T06:29:45.366Z,101393.00
2023-11-23T06:32:47.256Z,101376.31
2023-11-23T06:35:49.903Z,101376.53
2023-11-23T06:38:51.613Z,101371.84
2023-11-23T06:41:54.142Z,101371.44
2023-11-23T06:44:58.021Z,101365.69
2023-11-23T06:47:59.886Z,101365.69
2023-11-23T06:51:03.369Z,101360.50
2023-11-23T06:54:05.721Z,101360.28
2023-11-23T06:57:07.458Z,101367.72
2023-11-23T07:00:17.905Z,101359.47
2023-11-23T07:03:22.605Z,101370.06
2023-11-23T07:06:25.600Z,101362.53
2023-11-23T07:09:27.460Z,101370.22
2023-11-23T07:12:29.283Z,101384.41
2023-11-23T07:15:33.237Z,101390.56
2023-11-23T07:18:35.365Z,101388.88
2023-11-23T07:21:37.297Z,101410.06
2023-11-23T07:24:38.996Z,101410.06
2023-11-23T07:27:40.764Z,101409.34
2023-11-23T07:30:44.420Z,101405.56
2023-11-23T07:33:46.437Z,101391.63
2023-11-23T07:36:48.380Z,101387.63
2023-11-23T07:39:51.030Z,101379.56
2023-11-23T07:42:52.956Z,101365.63
2023-11-23T07:45:56.284Z,101419.09
2023-11-23T07:48:58.010Z,101392.69
2023-11-23T07:51:59.771Z,101388.13
2023-11-23T07:55:01.623Z,101396.81
2023-11-23T07:58:03.521Z,101393.44
2023-11-23T08:01:08.739Z,101392.22
2023-11-23T08:04:12.849Z,101379.75
2023-11-23T08:07:15.121Z,101384.66
2023-11-23T08:10:17.132Z,101369.94
2023-11-23T08:13:21.333Z,101374.63
2023-11-23T08:16:24.506Z,101366.03
2023-11-23T08:19:26.641Z,101365.03
2023-11-23T08:22:28.397Z,101370.66
2023-11-23T08:25:30.188Z,101368.72
2023-11-23T08:28:31.980Z,101368.44
2023-11-23T08:31:35.219Z,101355.88
2023-11-23T08:34:38.978Z,101350.16
2023-11-23T08:37:41.884Z,101344.69
2023-11-23T08:40:43.804Z,101347.69
2023-11-23T08:43:46.263Z,101339.41
2023-11-23T08:46:49.464Z,101332.75
2023-11-23T08:49:51.429Z,101341.19
2023-11-23T08:52:53.136Z,101339.31
2023-11-23T08:55:55.637Z,101327.69
2023-11-23T08:58:57.495Z,101325.00
2023-11-23T09:02:05.656Z,101338.22
2023-11-23T09:05:11.702Z,101332.31
2023-11-23T09:08:14.905Z,101344.94
2023-11-23T09:11:16.988Z,101339.19
2023-11-23T09:14:18.909Z,101343.38
2023-11-23T09:17:22.118Z,101344.53
2023-11-23T09:20:24.363Z,101340.63
2023-11-23T09:23:28.324Z,101335.72
2023-11-23T09:26:30.129Z,101330.53
2023-11-23T09:29:32.601Z,101322.72
2023-11-23T09:32:37.935Z,101333.53
2023-11-23T09:35:40.310Z,101340.00
2023-11-23T09:38:43.384Z,101333.63
2023-11-23T09:41:45.873Z,101320.53
2023-11-23T09:44:47.829Z,101327.81
2023-11-23T09:47:51.695Z,101327.91
2023-11-23T09:50:53.566Z,101320.09
2023-11-23T09:54:00.158Z,101312.31
2023-11-23T09:57:02.635Z,101315.34
2023-11-23T10:00:10.339Z,101313.03
2023-11-23T10:03:15.011Z,101307.84
2023-11-23T10:06:17.085Z,101304.41
2023-11-23T10:09:19.122Z,101302.53
2023-11-23T10:12:24.936Z,101289.63
2023-11-23T10:15:28.175Z,101271.00
2023-11-23T10:18:37.842Z,101280.69
2023-11-23T10:21:41.380Z,101274.88
2023-11-23T10:24:47.361Z,101269.34
2023-11-23T10:27:49.114Z,101257.47
2023-11-23T10:30:52.104Z,101256.94
2023-11-23T10:33:55.439Z,101240.63
2023-11-23T10:36:58.998Z,101240.50
2023-11-23T10:40:01.428Z,101223.63
2023-11-23T10:43:03.931Z,101212.56
2023-11-23T10:46:09.569Z,101220.84
2023-11-23T10:49:14.743Z,101223.03
2023-11-23T10:52:18.352Z,101212.28
2023-11-23T10:55:20.234Z,101202.00
2023-11-23T10:58:24.103Z,101204.91
2023-11-23T11:01:28.708Z,101203.72
2023-11-23T11:04:32.345Z,101195.00
2023-11-23T11:07:36.236Z,101189.44
2023-11-23T11:10:49.563Z,101192.19
2023-11-23T11:14:00.286Z,101187.91
2023-11-23T11:17:03.497Z,101183.19
2023-11-23T11:20:11.693Z,101170.06
2023-11-23T11:23:13.412Z,101156.66
2023-11-23T11:26:19.034Z,101164.13
2023-11-23T11:29:22.242Z,101153.53
2023-11-23T11:32:24.196Z,101159.50
2023-11-23T11:38:19.481Z,101154.63
2023-11-23T11:41:22.613Z,101151.25
2023-11-23T11:44:24.411Z,101148.22
2023-11-23T11:47:28.173Z,101129.25
2023-11-23T11:50:32.073Z,101143.09
2023-11-23T11:53:35.188Z,101134.50
2023-11-23T11:56:38.477Z,101137.88
2023-11-23T11:59:42.696Z,101128.91
2023-11-23T12:03:41.192Z,101111.28
2023-11-23T12:06:45.969Z,101103.81
2023-11-23T12:09:54.506Z,101111.81
2023-11-23T12:12:56.667Z,101116.06
2023-11-23T12:15:58.348Z,101110.47
2023-11-23T12:19:01.544Z,101099.25
2023-11-23T12:22:03.988Z,101100.41
2023-11-23T12:25:07.073Z,101097.81
2023-11-23T12:28:09.454Z,101087.41
2023-11-23T12:31:11.598Z,101096.72
2023-11-23T12:34:35.350Z,101083.09
2023-11-23T12:40:34.501Z,101079.72
2023-11-23T12:43:36.229Z,101085.50
2023-11-23T12:46:38.064Z,101062.88
2023-11-23T12:49:39.954Z,101050.03
2023-11-23T12:52:41.824Z,101052.47
2023-11-23T12:55:45.288Z,101048.59
2023-11-23T12:58:48.600Z,101037.09
2023-11-23T13:01:51.911Z,101040.44
2023-11-23T13:04:53.929Z,101029.22
2023-11-23T13:07:55.746Z,101020.50
2023-11-23T13:14:43.484Z,101000.63
2023-11-23T13:17:45.321Z,101011.44
2023-11-23T13:20:47.785Z,101013.88
2023-11-23T13:23:49.657Z,101013.88
2023-11-23T13:26:51.502Z,100993.00
2023-11-23T13:31:40.743Z,100994.28
2023-11-23T13:35:01.007Z,100992.63
2023-11-23T13:38:02.740Z,100975.50
2023-11-23T13:41:06.069Z,100960.97
2023-11-23T13:44:10.820Z,100957.63
2023-11-23T13:47:14.444Z,100941.81
2023-11-23T13:50:18.057Z,100941.44
2023-11-23T13:53:19.960Z,100947.56
2023-11-23T13:56:23.655Z,100941.44
2023-11-23T13:59:25.599Z,100934.19
2023-11-23T14:02:28.701Z,100934.53
2023-11-23T14:05:31.686Z,100923.41
2023-11-23T14:08:33.722Z,100933.44
2023-11-23T14:11:36.192Z,100917.81
2023-11-23T14:14:37.996Z,100927.09
2023-11-23T14:17:41.217Z,100929.16
2023-11-23T14:20:46.127Z,100941.44
2023-11-23T14:23:50.269Z,100938.84
2023-11-23T14:26:53.722Z,100934.53
2023-11-23T14:29:55.477Z,100934.53
2023-11-23T14:32:59.437Z,100927.31
2023-11-23T14:36:01.392Z,100922.84
2023-11-23T14:39:05.602Z,100917.28
2023-11-23T14:42:07.886Z,100902.59
2023-11-23T14:45:11.664Z,100910.59
2023-11-23T14:48:15.784Z,100902.59
2023-11-23T14:51:19.571Z,100909.63
2023-11-23T14:54:34.788Z,100915.25
2023-11-23T14:57:39.537Z,100911.88
2023-11-23T15:00:42.105Z,100904.25
2023-11-23T15:03:45.341Z,100908.91
2023-11-23T15:06:47.201Z,100898.84
2023-11-23T15:09:50.654Z,100886.00
2023-11-23T15:12:54.135Z,100862.53
2023-11-23T15:15:57.247Z,100853.81
2023-11-23T15:19:01.464Z,100855.09
2023-11-23T15:22:06.629Z,100849.16
2023-11-23T15:25:10.628Z,100843.75
2023-11-23T15:28:12.701Z,100834.84
2023-11-23T15:31:16.824Z,100821.03
2023-11-23T15:34:21.727Z,100832.59
2023-11-23T15:37:24.685Z,100833.50
2023-11-23T15:40:27.134Z,100829.44
2023-11-23T15:43:28.999Z,100825.16
2023-11-23T15:46:31.134Z,100814.16
2023-11-23T15:49:34.478Z,100813.59
2023-11-23T15:52:36.897Z,100816.41
2023-11-23T15:55:39.514Z,100813.97
2023-11-23T15:58:41.665Z,100807.28
2023-11-23T16:01:43.473Z,100801.31
2023-11-23T16:04:46.730Z,100792.75
2023-11-23T16:07:48.663Z,100799.09
2023-11-23T16:10:50.557Z,100803.53
2023-11-23T16:13:52.666Z,100798.72
2023-11-23T16:16:54.396Z,100802.97
2023-11-23T16:19:57.504Z,100804.13
2023-11-23T16:22:59.212Z,100816.00
2023-11-23T16:26:01.097Z,100820.31
2023-11-23T16:29:03.961Z,100810.81
2023-11-23T16:32:06.385Z,100794.97
2023-11-23T16:35:12.126Z,100808.38
2023-11-23T16:38:14.360Z,100795.19
2023-11-23T16:41:16.175Z,100794.25
2023-11-23T16:44:17.950Z,100781.59
2023-11-23T16:47:19.619Z,100781.59
2023-11-23T16:50:22.981Z,100809.53
2023-11-23T16:53:24.733Z,100809.69
2023-11-23T16:56:26.430Z,100799.28
2023-11-23T16:59:28.190Z,100783.47
2023-11-23T17:02:30.017Z,100777.28
2023-11-23T17:05:33.661Z,100784.38
2023-11-23T17:08:35.534Z,100790.50
2023-11-23T17:11:37.639Z,100779.53
2023-11-23T17:14:39.344Z,100766.31
2023-11-23T17:17:46.321Z,100772.47
2023-11-23T17:20:49.508Z,100764.84
2023-11-23T17:23:51.257Z,100767.63
2023-11-23T17:26:53.251Z,100762.03
2023-11-23T17:29:54.938Z,100763.69
2023-11-23T17:32:56.762Z,100763.69
2023-11-23T17:36:00.880Z,100755.31
2023-11-23T17:39:03.949Z,100740.59
2023-11-23T17:42:06.756Z,100735.38
2023-11-23T17:45:12.414Z,100735.97
2023-11-23T17:48:14.413Z,100726.66
2023-11-23T17:51:18.466Z,100732.25
2023-11-23T17:54:20.563Z,100728.31
2023-11-23T17:57:22.568Z,100731.53
2023-11-23T18:00:25.657Z,100734.13
2023-11-23T18:03:27.653Z,100723.31
2023-11-23T18:06:32.587Z,100732.25
2023-11-23T18:09:35.866Z,100711.22
2023-11-23T18:12:37.913Z,100704.50
2023-11-23T18:15:39.914Z,100687.78
2023-11-23T18:18:41.727Z,100676.78
2023-11-23T18:21:44.907Z,100662.97
2023-11-23T18:24:46.736Z,100639.91
2023-11-23T18:27:48.839Z,100648.25
2023-11-23T18:30:52.044Z,100646.38
2023-11-23T18:33:53.884Z,100631.84
2023-11-23T18:36:57.453Z,100632.97
2023-11-23T18:40:08.560Z,100620.47
2023-11-23T18:43:11.674Z,100612.06
2023-11-23T18:46:15.645Z,100602.00
2023-11-23T18:49:17.406Z,100596.03
2023-11-23T18:52:20.568Z,100588.75
2023-11-23T18:55:22.411Z,100590.66
2023-11-23T18:58:24.255Z,100584.13
2023-11-23T19:01:25.963Z,100580.16
2023-11-23T19:04:27.799Z,100592.06
2023-11-23T19:07:31.458Z,100577.72
2023-11-23T19:10:33.429Z,100587.00
2023-11-23T19:13:35.137Z,100573.19
2023-11-23T19:16:36.968Z,100574.66
2023-11-23T19:19:40.493Z,100582.81
2023-11-23T19:22:44.148Z,100577.97
2023-11-23T19:25:50.219Z,100576.63
2023-11-23T19:28:52.584Z,100572.53
2023-11-23T19:31:55.909Z,100564.88
2023-11-23T19:34:58.438Z,100547.69
2023-11-23T19:38:04.896Z,100541.34
2023-11-23T19:41:10.137Z,100544.88
2023-11-23T19:44:12.727Z,100539.50
2023-11-23T19:47:15.483Z,100544.66
2023-11-23T19:50:18.989Z,100539.78
2023-11-23T19:53:26.877Z,100543.50
2023-11-23T19:56:28.675Z,100542.94
2023-11-23T19:59:30.368Z,100533.56
2023-11-23T20:02:32.186Z,100541.56
2023-11-23T20:05:33.918Z,100539.28
2023-11-23T20:08:36.949Z,100537.97
2023-11-23T20:11:39.452Z,100534.03
2023-11-23T20:14:41.317Z,100531.59
2023-11-23T20:17:43.095Z,100522.81
2023-11-23T20:20:44.944Z,100510.13
2023-11-23T20:23:47.904Z,100512.38
2023-11-23T20:26:49.638Z,100512.31
2023-11-23T20:29:51.403Z,100507.09
2023-11-23T20:32:53.224Z,100499.03
2023-11-23T20:35:55.114Z,100504.06
2023-11-23T20:38:58.446Z,100497.31
2023-11-23T20:42:00.290Z,100483.34
2023-11-23T20:45:02.144Z,100483.50
2023-11-23T20:48:04.481Z,100489.66
2023-11-23T20:51:06.562Z,100482.75
2023-11-23T20:54:09.600Z,100464.06
2023-11-23T20:57:12.353Z,100462.53
2023-11-23T21:00:16.633Z,100453.63
2023-11-23T21:03:19.090Z,100445.94
2023-11-23T21:06:21.901Z,100445.03
2023-11-23T21:09:26.247Z,100437.94
2023-11-23T21:12:29.773Z,100432.72
2023-11-23T21:15:31.535Z,100420.75
2023-11-23T21:18:33.615Z,100415.53
2023-11-23T21:31:28.932Z,100383.53
2023-11-23T21:34:30.646Z,100370.78
2023-11-23T21:37:32.339Z,100369.63
2023-11-23T21:40:34.789Z,100363.22
2023-11-23T21:43:36.506Z,100351.56
2023-11-23T21:46:40.343Z,100360.66
2023-11-23T21:49:42.777Z,100364.22
2023-11-23T21:52:44.779Z,100354.09
2023-11-23T21:55:46.475Z,100351.66
2023-11-23T21:58:48.469Z,100352.41
2023-11-23T22:01:51.548Z,100343.06
2023-11-23T22:04:53.260Z,100343.38
2023-11-23T22:07:55.018Z,100342.03
2023-11-23T22:10:58.223Z,100329.72
2023-11-23T22:14:02.302Z,100324.50
2023-11-23T22:17:06.134Z,100319.28
2023-11-23T22:20:09.589Z,100314.38
2023-11-23T22:23:11.975Z,100322.53
2023-11-23T22:26:15.192Z,100296.59
2023-11-23T22:29:16.930Z,100295.94
2023-11-23T22:32:25.108Z,100289.81
2023-11-23T22:35:27.720Z,100289.06
2023-11-23T22:38:30.128Z,100280.13
2023-11-23T22:41:32.834Z,100275.03
2023-11-23T22:44:35.114Z,100264.44
2023-11-23T22:47:38.879Z,100260.16
2023-11-23T22:50:40.662Z,100258.28
2023-11-23T22:53:42.353Z,100251.22
2023-11-23T22:56:44.293Z,100244.13
2023-11-23T22:59:45.998Z,100229.53
2023-11-23T23:02:49.265Z,100210.94
2023-11-23T23:05:54.702Z,100207.53
2023-11-23T23:08:56.479Z,100192.97
2023-11-23T23:11:58.245Z,100175.75
2023-11-23T23:14:59.935Z,100179.00
2023-11-23T23:18:03.332Z,100167.03
2023-11-23T23:21:05.937Z,100159.81
2023-11-23T23:24:07.956Z,100162.56
2023-11-23T23:27:12.117Z,100161.81
2023-11-23T23:30:15.224Z,100144.44
2023-11-23T23:33:18.515Z,100154.13
2023-11-23T23:36:20.303Z,100146.44
2023-11-23T23:39:22.088Z,100153.34
2023-11-23T23:42:23.851Z,100148.09
2023-11-23T23:45:25.631Z,100139.19
2023-11-23T23:48:28.746Z,100135.84
2023-11-23T23:51:32.959Z,100127.84
2023-11-23T23:54:34.916Z,100119.81
2023-11-23T23:57:37.553Z,100122.59
